Time;durP1;ratioP1;P1;durP2;ratioP2;P2;SDS_P1;SDS_P2;PMS_P1;PMS_P2;Temp;Humidity;BMP_temperature;BMP_pressure;BME280_temperature;BME280_humidity;BME280_pressure;Samples;Min_cycle;Max_cycle;Signal;HPM_P1;HPM_P2
2023/06/16 00:00:11;;;;;;;;;;;;;;;22.99;42.26;101551.91;5084753;28;19927;-81
2023/06/16 00:02:41;;;;;;;;;;;;;;;22.97;42.16;101560.38;5086381;28;20311;-80
2023/06/16 00:05:09;;;;;;;;;;;;;;;22.97;42.16;101538.53;5086572;28;20291;-81
2023/06/16 00:07:35;;;;;;;;;;;;;;;22.97;42.18;101548.66;5087551;28;19950;-80
2023/06/16 00:10:00;;;;;;;;;;;;;;;22.94;42.60;101550.06;5085727;28;19924;-81
2023/06/16 00:12:26;;;;;;;;;;;;;;;22.91;42.34;101540.59;5087420;28;19923;-80
2023/06/16 00:14:51;;;;;;;;;;;;;;;22.90;42.14;101538.97;5090761;28;19924;-80
2023/06/16 00:17:20;;;;;;;;;;;;;;;22.91;42.23;101547.97;5091804;28;19916;-80
2023/06/16 00:19:47;;;;;;;;;;;;;;;22.91;42.10;101534.31;5081839;28;19952;-80
2023/06/16 00:22:12;;;;;;;;;;;;;;;22.90;42.19;101541.69;5072666;28;20010;-80
2023/06/16 00:24:37;;;;;;;;;;;;;;;22.90;42.14;101540.91;5086760;28;19930;-82
2023/06/16 00:27:03;;;;;;;;;;;;;;;22.85;42.54;101541.03;5086661;28;19955;-80
2023/06/16 00:29:29;;;;;;;;;;;;;;;22.79;42.72;101540.31;5086474;28;19966;-81
2023/06/16 00:31:55;;;;;;;;;;;;;;;22.77;42.85;101539.00;5089107;28;19956;-81
2023/06/16 00:34:20;;;;;;;;;;;;;;;22.76;42.53;101540.13;5085870;28;19927;-80
2023/06/16 00:36:46;;;;;;;;;;;;;;;22.77;42.79;101533.53;5080205;28;20329;-80
2023/06/16 00:39:11;;;;;;;;;;;;;;;22.78;42.61;101538.69;5086946;28;19923;-81
2023/06/16 00:41:37;;;;;;;;;;;;;;;22.76;42.53;101527.25;5086974;28;20336;-80
2023/06/16 00:44:03;;;;;;;;;;;;;;;22.77;42.67;101530.81;5086973;28;19927;-80
2023/06/16 00:46:29;;;;;;;;;;;;;;;22.79;42.59;101531.31;5088159;28;19916;-81
2023/06/16 00:48:55;;;;;;;;;;;;;;;22.82;42.43;101525.28;5085286;28;19990;-81
2023/06/16 00:51:21;;;;;;;;;;;;;;;22.81;42.83;101529.09;5082486;28;20363;-80
2023/06/16 00:53:47;;;;;;;;;;;;;;;22.78;42.70;101525.03;5091118;28;19959;-80
2023/06/16 00:56:12;;;;;;;;;;;;;;;22.77;42.63;101522.59;5082851;28;20326;-81
2023/06/16 00:58:38;;;;;;;;;;;;;;;22.74;42.46;101529.50;5079718;28;19948;-81
2023/06/16 01:01:03;;;;;;;;;;;;;;;22.68;43.59;101521.75;5086723;28;19930;-80
2023/06/16 01:03:29;;;;;;;;;;;;;;;22.63;43.39;101524.63;5085367;28;20383;-81
2023/06/16 01:05:56;;;;;;;;;;;;;;;22.59;43.86;101527.94;5085116;28;20356;-81
2023/06/16 01:08:25;;;;;;;;;;;;;;;22.52;43.44;101522.13;5084243;28;19955;-82
2023/06/16 01:11:06;;;;;;;;;;;;;;;22.51;43.30;101520.50;5086636;28;19923;-80
2023/06/16 01:13:52;;;;;;;;;;;;;;;22.49;43.29;101511.81;5082912;28;19945;-80
2023/06/16 01:16:22;;;;;;;;;;;;;;;22.54;43.32;101511.69;5082444;28;19952;-80
2023/06/16 01:18:48;;;;;;;;;;;;;;;22.55;43.21;101510.56;5079059;28;20380;-80
2023/06/16 01:21:37;;;;;;;;;;;;;;;22.55;43.15;101504.31;5081806;28;19916;-80
2023/06/16 01:24:03;;;;;;;;;;;;;;;22.57;42.99;101504.81;5083619;28;19927;-80
2023/06/16 01:26:31;;;;;;;;;;;;;;;22.61;43.15;101505.78;5087627;28;20311;-80
2023/06/16 01:28:58;;;;;;;;;;;;;;;22.59;43.38;101499.84;5084111;28;20598;-80
2023/06/16 01:31:28;;;;;;;;;;;;;;;22.50;43.63;101496.25;5083177;28;20511;-80
2023/06/16 01:33:54;;;;;;;;;;;;;;;22.45;43.69;101499.91;5084171;28;19921;-80
2023/06/16 01:36:20;;;;;;;;;;;;;;;22.46;43.33;101490.59;5088994;28;19927;-81
2023/06/16 01:38:46;;;;;;;;;;;;;;;22.52;43.28;101485.81;5084577;28;19916;-80
2023/06/16 01:41:12;;;;;;;;;;;;;;;22.57;43.26;101499.34;5084291;28;20004;-81
2023/06/16 01:43:37;;;;;;;;;;;;;;;22.55;43.81;101487.94;5081841;28;19962;-80
2023/06/16 01:46:04;;;;;;;;;;;;;;;22.44;44.69;101492.84;5086698;28;20011;-80
2023/06/16 01:48:30;;;;;;;;;;;;;;;22.43;43.40;101496.66;5084659;28;19920;-81
2023/06/16 01:50:55;;;;;;;;;;;;;;;22.45;43.18;101491.72;5084817;28;19961;-80
2023/06/16 01:53:20;;;;;;;;;;;;;;;22.49;43.63;101492.72;5083687;28;19923;-80
2023/06/16 01:55:46;;;;;;;;;;;;;;;22.44;43.42;101487.38;5081001;28;19963;-80
2023/06/16 01:58:12;;;;;;;;;;;;;;;22.38;43.92;101483.13;5086069;28;19924;-80
2023/06/16 02:00:39;;;;;;;;;;;;;;;22.39;43.83;101483.94;5083931;28;20500;-80
2023/06/16 02:03:12;;;;;;;;;;;;;;;22.38;43.83;101485.06;5084109;28;19926;-80
2023/06/16 02:05:40;;;;;;;;;;;;;;;22.31;43.47;101483.59;5085092;28;19916;-80
2023/06/16 02:08:06;;;;;;;;;;;;;;;22.25;44.58;101481.25;5083110;28;19916;-81
2023/06/16 02:10:32;;;;;;;;;;;;;;;22.26;44.75;101480.16;5084675;28;19916;-80
2023/06/16 02:12:57;;;;;;;;;;;;;;;22.26;44.04;101480.97;5083421;28;20301;-81
2023/06/16 02:15:23;;;;;;;;;;;;;;;22.27;44.16;101481.78;5084345;28;20486;-80
2023/06/16 02:17:50;;;;;;;;;;;;;;;22.30;43.93;101478.44;5084252;28;19931;-80
2023/06/16 02:20:16;;;;;;;;;;;;;;;22.28;44.55;101483.41;5082474;28;19946;-80
2023/06/16 02:22:41;;;;;;;;;;;;;;;22.25;44.02;101482.06;5083999;28;19920;-80
2023/06/16 02:25:07;;;;;;;;;;;;;;;22.22;44.23;101485.41;5079666;28;19921;-80
2023/06/16 02:27:32;;;;;;;;;;;;;;;22.27;43.93;101477.13;5083244;28;20462;-81
2023/06/16 02:29:58;;;;;;;;;;;;;;;22.27;43.73;101471.66;5085078;28;20367;-81
2023/06/16 02:32:23;;;;;;;;;;;;;;;22.24;44.23;101471.47;5086697;28;19916;-80
2023/06/16 02:34:48;;;;;;;;;;;;;;;22.18;45.24;101469.97;5088524;28;19923;-80
2023/06/16 02:37:14;;;;;;;;;;;;;;;22.19;44.03;101471.59;5088888;28;20003;-80
2023/06/16 02:39:40;;;;;;;;;;;;;;;22.22;44.39;101463.59;5086342;28;19960;-81
2023/06/16 02:42:06;;;;;;;;;;;;;;;22.19;44.63;101460.66;5090872;28;19920;-80
2023/06/16 02:44:31;;;;;;;;;;;;;;;22.10;44.79;101462.53;5086000;28;19993;-81
2023/06/16 02:46:57;;;;;;;;;;;;;;;22.00;44.74;101466.25;5089737;28;19924;-81
2023/06/16 02:49:23;;;;;;;;;;;;;;;22.02;44.48;101473.00;5090095;28;19943;-80
2023/06/16 02:51:49;;;;;;;;;;;;;;;22.05;44.70;101462.63;5084591;28;19927;-80
2023/06/16 02:54:15;;;;;;;;;;;;;;;22.03;44.65;101462.91;5088808;28;19920;-80
2023/06/16 02:56:40;;;;;;;;;;;;;;;22.07;44.53;101460.41;5086522;28;19930;-80
2023/06/16 02:59:06;;;;;;;;;;;;;;;22.09;44.38;101459.00;5091029;28;20019;-81
2023/06/16 03:01:32;;;;;;;;;;;;;;;22.08;44.26;101457.34;5084666;28;19978;-81
2023/06/16 03:03:58;;;;;;;;;;;;;;;22.07;45.07;101455.75;5088032;28;19919;-81
2023/06/16 03:06:23;;;;;;;;;;;;;;;22.08;44.34;101456.56;5094319;28;20407;-80
2023/06/16 03:08:48;;;;;;;;;;;;;;;22.09;44.31;101458.19;5086425;28;20531;-81
2023/06/16 03:11:14;;;;;;;;;;;;;;;22.08;44.85;101451.09;5087542;28;19969;-81
2023/06/16 03:13:40;;;;;;;;;;;;;;;22.05;44.90;101457.97;5086070;28;19916;-80
2023/06/16 03:16:06;;;;;;;;;;;;;;;22.08;44.85;101451.09;5091660;28;19916;-81
2023/06/16 03:18:31;;;;;;;;;;;;;;;22.08;45.54;101457.34;5087005;28;19920;-81
2023/06/16 03:20:57;;;;;;;;;;;;;;;22.04;44.89;101456.34;5087847;28;19924;-80
2023/06/16 03:23:23;;;;;;;;;;;;;;;22.07;45.02;101455.75;5088953;28;20022;-80
2023/06/16 03:25:48;;;;;;;;;;;;;;;22.13;44.64;101453.72;5083530;28;20618;-81
2023/06/16 03:28:13;;;;;;;;;;;;;;;22.19;44.35;101452.47;5081569;28;20491;-80
2023/06/16 03:30:40;;;;;;;;;;;;;;;22.25;44.46;101454.78;5086607;28;19942;-80
2023/06/16 03:33:06;;;;;;;;;;;;;;;22.29;45.38;101457.72;5088527;28;19916;-81
2023/06/16 03:35:31;;;;;;;;;;;;;;;22.32;44.12;101462.53;5084231;28;19944;-81
2023/06/16 03:37:56;;;;;;;;;;;;;;;22.32;44.24;101468.00;5086902;28;19947;-80
2023/06/16 03:40:22;;;;;;;;;;;;;;;22.32;44.44;101459.81;5085472;28;20303;-82
2023/06/16 03:42:47;;;;;;;;;;;;;;;22.29;44.41;101460.44;5084521;28;19920;-80
2023/06/16 03:45:12;;;;;;;;;;;;;;;22.26;44.06;101461.88;5090517;28;20428;-81
2023/06/16 03:47:38;;;;;;;;;;;;;;;22.28;44.77;101464.28;5083800;28;20414;-80
2023/06/16 03:50:03;;;;;;;;;;;;;;;;;;5086422;28;19926;-80
2023/06/16 03:52:28;;;;;;;;;;;;;;;22.40;44.33;101460.97;5084459;28;20582;-80
2023/06/16 03:54:54;;;;;;;;;;;;;;;22.48;44.67;101452.06;5088836;28;19920;-80
2023/06/16 03:57:19;;;;;;;;;;;;;;;22.53;44.39;101452.72;5087436;28;19930;-80
2023/06/16 03:59:45;;;;;;;;;;;;;;;22.56;44.19;101457.56;5084385;28;19999;-80
2023/06/16 04:02:10;;;;;;;;;;;;;;;22.61;44.31;101449.25;5085433;28;19927;-81
2023/06/16 04:04:36;;;;;;;;;;;;;;;22.69;44.29;101449.63;5086045;28;19951;-81
2023/06/16 04:07:05;;;;;;;;;;;;;;;22.73;44.22;101454.13;5086871;28;19921;-80
2023/06/16 04:09:30;;;;;;;;;;;;;;;22.77;44.14;101451.59;5084393;28;20387;-81
2023/06/16 04:11:56;;;;;;;;;;;;;;;22.82;43.94;101448.78;5083667;28;19927;-81
2023/06/16 04:14:22;;;;;;;;;;;;;;;22.82;44.29;101451.50;5087509;28;19950;-80
2023/06/16 04:16:47;;;;;;;;;;;;;;;22.79;44.41;101439.22;5083004;28;20391;-80
2023/06/16 04:19:13;;;;;;;;;;;;;;;22.78;44.81;101448.53;5087812;28;20534;-81
2023/06/16 04:21:41;;;;;;;;;;;;;;;22.78;44.83;101439.53;5086262;28;19944;-81
2023/06/16 04:24:08;;;;;;;;;;;;;;;22.78;44.62;101436.81;5087444;28;19923;-80
2023/06/16 04:26:33;;;;;;;;;;;;;;;22.80;44.73;101442.75;5083545;28;20684;-80
2023/06/16 04:29:03;;;;;;;;;;;;;;;22.78;44.80;101440.34;5067959;28;19925;-81
2023/06/16 04:31:31;;;;;;;;;;;;;;;22.72;45.14;101447.06;5084170;28;19923;-80
2023/06/16 04:33:58;;;;;;;;;;;;;;;22.70;45.14;101452.03;5085382;28;20643;-80
2023/06/16 04:36:25;;;;;;;;;;;;;;;22.69;45.22;101446.88;5087149;28;19916;-80
2023/06/16 04:38:50;;;;;;;;;;;;;;;22.70;45.69;101443.84;5087391;28;19924;-81
2023/06/16 04:41:16;;;;;;;;;;;;;;;22.68;45.32;101448.00;5084317;28;19962;-81
2023/06/16 04:43:41;;;;;;;;;;;;;;;22.68;45.43;101448.81;5067753;28;20453;-81
2023/06/16 04:46:07;;;;;;;;;;;;;;;22.72;45.49;101452.53;5084249;28;19967;-81
2023/06/16 04:48:32;;;;;;;;;;;;;;;22.78;45.16;101443.06;5083238;28;19916;-81
2023/06/16 04:50:57;;;;;;;;;;;;;;;22.83;45.37;101440.25;5084003;28;19936;-81
2023/06/16 04:53:23;;;;;;;;;;;;;;;22.82;45.51;101443.31;5081208;28;19912;-81
2023/06/16 04:55:48;;;;;;;;;;;;;;;22.78;45.48;101445.81;5085079;28;20395;-81
2023/06/16 04:58:14;;;;;;;;;;;;;;;22.81;45.81;101441.66;5083235;28;19951;-81
2023/06/16 05:00:39;;;;;;;;;;;;;;;22.84;45.30;101441.06;5081426;28;20541;-82
2023/06/16 05:03:04;;;;;;;;;;;;;;;22.86;45.72;101444.28;5084392;28;19931;-81
2023/06/16 05:05:30;;;;;;;;;;;;;;;22.89;45.57;101449.13;5080617;28;19963;-81
2023/06/16 05:07:56;;;;;;;;;;;;;;;22.92;45.52;101443.81;5079984;28;19920;-81
2023/06/16 05:10:21;;;;;;;;;;;;;;;23.00;45.25;101446.94;5079483;28;19923;-81
2023/06/16 05:12:46;;;;;;;;;;;;;;;23.07;45.44;101439.06;5084931;28;19923;-82
2023/06/16 05:15:11;;;;;;;;;;;;;;;23.06;45.65;101438.25;5085993;28;20683;-82
2023/06/16 05:17:38;;;;;;;;;;;;;;;23.11;46.21;101443.59;5082544;28;19919;-81
2023/06/16 05:20:03;;;;;;;;;;;;;;;23.11;45.86;101440.03;5082744;28;19924;-81
2023/06/16 05:22:28;;;;;;;;;;;;;;;23.12;45.70;101436.19;5081833;28;20419;-81
2023/06/16 05:24:54;;;;;;;;;;;;;;;23.15;45.39;101438.28;5080851;28;19920;-82
2023/06/16 05:27:22;;;;;;;;;;;;;;;23.25;45.81;101438.00;5083192;28;19920;-81
2023/06/16 05:29:48;;;;;;;;;;;;;;;23.31;45.78;101434.00;5082148;28;19938;-81
2023/06/16 05:32:13;;;;;;;;;;;;;;;23.40;45.79;101436.78;5088266;28;20494;-81
2023/06/16 05:34:39;;;;;;;;;;;;;;;23.45;45.41;101434.69;5082503;28;20795;-81
2023/06/16 05:37:04;;;;;;;;;;;;;;;23.52;45.70;101434.25;5078838;28;19924;-81
2023/06/16 05:39:30;;;;;;;;;;;;;;;23.54;45.66;101440.19;5082699;28;20411;-81
2023/06/16 05:41:55;;;;;;;;;;;;;;;23.58;45.59;101443.94;5081390;28;21697;-81
2023/06/16 05:44:20;;;;;;;;;;;;;;;23.66;45.63;101436.84;5079411;28;20749;-81
2023/06/16 05:46:46;;;;;;;;;;;;;;;23.74;45.34;101445.09;5080394;28;20466;-80
2023/06/16 05:49:11;;;;;;;;;;;;;;;23.80;45.40;101448.47;5079228;28;20292;-80
2023/06/16 05:51:36;;;;;;;;;;;;;;;23.83;45.31;101449.75;5075351;28;20007;-80
2023/06/16 05:54:01;;;;;;;;;;;;;;;23.87;45.68;101445.25;5076985;28;20020;-81
2023/06/16 05:56:27;;;;;;;;;;;;;;;23.91;45.61;101440.75;5078909;28;19924;-81
2023/06/16 05:58:52;;;;;;;;;;;;;;;23.95;45.10;101437.06;5078966;28;19961;-81
2023/06/16 06:01:18;;;;;;;;;;;;;;;23.96;45.02;101441.41;5081894;28;20306;-81
2023/06/16 06:03:44;;;;;;;;;;;;;;;24.00;45.05;101450.56;5077929;28;19960;-80
2023/06/16 06:06:10;;;;;;;;;;;;;;;24.01;44.98;101445.91;5075754;28;20007;-81
2023/06/16 06:08:35;;;;;;;;;;;;;;;24.01;45.18;101454.13;5080218;28;20055;-81
2023/06/16 06:11:01;;;;;;;;;;;;;;;24.00;45.32;101441.56;5082930;28;19916;-80
2023/06/16 06:13:27;;;;;;;;;;;;;;;24.00;45.27;101447.03;5076659;28;19920;-81
2023/06/16 06:15:52;;;;;;;;;;;;;;;24.02;45.05;101451.03;5077087;28;19924;-82
2023/06/16 06:18:17;;;;;;;;;;;;;;;24.02;45.27;101452.97;5079907;28;19963;-82
2023/06/16 06:20:43;;;;;;;;;;;;;;;23.99;45.21;101448.97;5078570;28;20018;-82
2023/06/16 06:23:09;;;;;;;;;;;;;;;24.00;45.35;101450.56;5074058;28;20138;-82
2023/06/16 06:25:35;;;;;;;;;;;;;;;23.99;45.23;101451.69;5078640;28;19923;-81
2023/06/16 06:28:00;;;;;;;;;;;;;;;23.97;45.37;101445.75;5079952;28;19920;-82
2023/06/16 06:30:27;;;;;;;;;;;;;;;23.94;45.39;101451.88;5075284;28;19927;-83
2023/06/16 06:32:52;;;;;;;;;;;;;;;23.94;45.39;101465.56;5077705;28;19943;-82
2023/06/16 06:35:18;;;;;;;;;;;;;;;23.93;45.55;101460.41;5078593;28;21164;-83
2023/06/16 06:37:43;;;;;;;;;;;;;;;23.87;45.65;101456.19;5074496;28;20383;-82
2023/06/16 06:40:08;;;;;;;;;;;;;;;23.86;45.43;101460.06;5076699;28;20399;-82
2023/06/16 06:42:34;;;;;;;;;;;;;;;23.81;45.51;101461.81;5076601;28;20522;-82
2023/06/16 06:44:59;;;;;;;;;;;;;;;23.84;45.62;101463.09;5077488;28;20624;-82
2023/06/16 06:47:25;;;;;;;;;;;;;;;23.88;45.62;101463.25;5084245;28;20336;-82
2023/06/16 06:49:50;;;;;;;;;;;;;;;23.91;45.51;101463.47;5077068;28;19955;-81
2023/06/16 06:52:15;;;;;;;;;;;;;;;23.93;45.66;101472.16;5073063;28;19916;-81
2023/06/16 06:54:41;;;;;;;;;;;;;;;23.99;45.40;101475.53;5078788;28;19920;-81
2023/06/16 06:57:06;;;;;;;;;;;;;;;24.01;45.28;101465.06;5075646;28;20019;-82
2023/06/16 06:59:32;;;;;;;;;;;;;;;24.03;45.42;101471.00;5056529;28;19933;-81
2023/06/16 07:01:57;;;;;;;;;;;;;;;24.05;45.53;101466.81;5073966;28;19924;-82
2023/06/16 07:04:23;;;;;;;;;;;;;;;24.09;46.17;101475.22;5053359;28;19920;-83
2023/06/16 07:06:48;;;;;;;;;;;;;;;24.12;45.26;101469.09;5073588;28;20140;-81
2023/06/16 07:09:13;;;;;;;;;;;;;;;24.19;45.37;101474.88;5060614;28;19929;-82
2023/06/16 07:11:39;;;;;;;;;;;;;;;24.26;45.24;101460.72;5077868;28;19955;-81
2023/06/16 07:14:04;;;;;;;;;;;;;;;24.34;45.34;101465.41;5074638;28;19927;-81
2023/06/16 07:16:30;;;;;;;;;;;;;;;24.42;44.76;101461.88;5077681;28;19920;-81
2023/06/16 07:18:55;;;;;;;;;;;;;;;24.48;44.67;101467.97;5082079;28;19962;-81
2023/06/16 07:21:20;;;;;;;;;;;;;;;24.54;44.79;101463.94;5083180;28;20435;-81
2023/06/16 07:23:46;;;;;;;;;;;;;;;24.63;44.67;101451.84;5085686;28;19924;-82
2023/06/16 07:26:11;;;;;;;;;;;;;;;24.66;44.61;101462.16;5081247;28;19927;-81
2023/06/16 07:28:37;;;;;;;;;;;;;;;24.70;44.64;101457.63;5078924;28;19924;-81
2023/06/16 07:31:02;;;;;;;;;;;;;;;24.69;44.89;101460.69;5081474;28;19931;-83
2023/06/16 07:33:27;;;;;;;;;;;;;;;24.76;44.61;101457.44;5076128;28;19969;-82
2023/06/16 07:35:52;;;;;;;;;;;;;;;24.75;44.67;101459.38;5078003;28;19949;-84
2023/06/16 07:38:18;;;;;;;;;;;;;;;24.70;44.49;101454.06;5081671;28;19919;-85
2023/06/16 07:40:43;;;;;;;;;;;;;;;24.59;44.74;101461.03;5061388;28;20376;-89
2023/06/16 07:43:09;;;;;;;;;;;;;;;24.52;45.02;101467.00;5085916;28;19974;-84
2023/06/16 07:45:34;;;;;;;;;;;;;;;24.50;45.37;101457.50;5080870;28;19963;-84
2023/06/16 07:48:00;;;;;;;;;;;;;;;24.36;45.52;101466.69;5084381;28;19920;-85
2023/06/16 07:50:26;;;;;;;;;;;;;;;24.33;45.93;101453.66;5083643;28;19955;-84
2023/06/16 07:52:51;;;;;;;;;;;;;;;24.39;45.79;101463.31;5084999;28;19944;-84
2023/06/16 07:55:16;;;;;;;;;;;;;;;24.45;45.78;101463.16;5079199;28;20759;-84
2023/06/16 07:57:42;;;;;;;;;;;;;;;24.50;46.20;101463.78;5079506;28;19943;-84
2023/06/16 08:00:11;;;;;;;;;;;;;;;24.52;46.13;101468.94;5081433;28;19920;-84
2023/06/16 08:02:36;;;;;;;;;;;;;;;24.50;45.99;101471.19;5083681;28;19979;-84
2023/06/16 08:05:01;;;;;;;;;;;;;;;24.46;46.03;101471.06;5085685;28;19974;-84
2023/06/16 08:07:26;;;;;;;;;;;;;;;24.45;46.47;101471.38;5065804;28;19959;-83
2023/06/16 08:09:52;;;;;;;;;;;;;;;24.43;46.01;101479.13;5081591;28;19946;-84
2023/06/16 08:12:17;;;;;;;;;;;;;;;24.38;46.00;101480.88;5080743;28;19916;-84
2023/06/16 08:14:42;;;;;;;;;;;;;;;24.38;46.84;101477.31;5084052;28;19973;-84
2023/06/16 08:17:08;;;;;;;;;;;;;;;24.28;46.85;101470.22;5078244;28;19919;-85
2023/06/16 08:19:33;;;;;;;;;;;;;;;24.29;46.43;101477.34;5083681;28;19924;-84
2023/06/16 08:21:59;;;;;;;;;;;;;;;24.29;46.64;101477.34;5085551;28;20481;-83
2023/06/16 08:24:24;;;;;;;;;;;;;;;24.30;47.04;101469.94;5079799;28;19924;-84
2023/06/16 08:26:50;;;;;;;;;;;;;;;24.33;46.41;101474.75;5082676;28;19916;-84
2023/06/16 08:29:15;;;;;;;;;;;;;;;24.28;47.04;101472.97;5083200;28;19920;-84
2023/06/16 08:31:40;;;;;;;;;;;;;;;24.39;46.45;101473.44;5062646;28;19916;-84
2023/06/16 08:34:07;;;;;;;;;;;;;;;24.40;46.37;101464.91;5082693;28;20391;-82
2023/06/16 08:36:33;;;;;;;;;;;;;;;24.51;46.13;101464.59;5085956;28;19919;-84
2023/06/16 08:38:58;;;;;;;;;;;;;;;24.53;46.20;101465.06;5085963;28;20338;-84
2023/06/16 08:41:23;;;;;;;;;;;;;;;24.58;45.99;101464.88;5089075;28;19927;-85
2023/06/16 08:43:50;;;;;;;;;;;;;;;24.60;45.87;101468.94;5086309;28;19931;-86
2023/06/16 08:46:15;;;;;;;;;;;;;;;24.61;45.92;101465.06;5073482;28;19974;-85
2023/06/16 08:48:41;;;;;;;;;;;;;;;24.57;46.00;101468.75;5088431;28;20283;-85
2023/06/16 08:51:09;;;;;;;;;;;;;;;24.57;46.26;101464.09;5086723;28;20498;-85
2023/06/16 08:53:36;;;;;;;;;;;;;;;24.60;46.18;101465.41;5091027;28;20287;-85
2023/06/16 08:56:02;;;;;;;;;;;;;;;24.60;46.38;101466.19;5089006;28;20387;-85
2023/06/16 08:58:28;;;;;;;;;;;;;;;24.59;46.04;101458.28;5089367;28;19962;-85
2023/06/16 09:00:54;;;;;;;;;;;;;;;24.58;46.10;101462.16;5090005;28;19931;-85
2023/06/16 09:03:19;;;;;;;;;;;;;;;24.59;46.31;101466.50;5085889;28;20387;-84
2023/06/16 09:05:45;;;;;;;;;;;;;;;24.64;45.73;101463.59;5087875;28;20421;-85
2023/06/16 09:08:11;;;;;;;;;;;;;;;24.65;46.11;101465.22;5089277;28;20315;-84
2023/06/16 09:10:37;;;;;;;;;;;;;;;24.65;45.66;101467.97;5087694;28;19924;-83
2023/06/16 09:13:02;;;;;;;;;;;;;;;24.65;46.13;101471.50;5088312;28;19924;-83
2023/06/16 09:15:28;;;;;;;;;;;;;;;24.67;45.84;101473.91;5087030;28;19924;-84
2023/06/16 09:17:56;;;;;;;;;;;;;;;24.69;46.78;101474.38;5089313;28;19920;-84
2023/06/16 09:20:22;;;;;;;;;;;;;;;24.72;45.84;101471.00;5089344;28;19922;-83
2023/06/16 09:23:01;;;;;;;;;;;;;;;24.77;45.87;101470.00;5086514;28;20372;-83
2023/06/16 09:25:30;;;;;;;;;;;;;;;24.82;45.34;101472.59;5085666;28;19920;-83
2023/06/16 09:27:56;;;;;;;;;;;;;;;24.76;45.57;101474.69;5090183;28;19916;-84
2023/06/16 09:30:21;;;;;;;;;;;;;;;24.77;45.45;101467.25;5088743;28;20290;-83
2023/06/16 09:32:48;;;;;;;;;;;;;;;24.83;45.46;101468.72;5087816;28;19924;-84
2023/06/16 09:35:30;;;;;;;;;;;;;;;24.89;45.28;101478.38;5089986;28;20445;-82
2023/06/16 09:37:56;;;;;;;;;;;;;;;24.92;45.30;101466.75;5085538;28;20458;-84
2023/06/16 09:40:26;;;;;;;;;;;;;;;24.87;45.43;101475.16;5086085;28;19923;-83
2023/06/16 09:42:51;;;;;;;;;;;;;;;24.91;45.44;101478.84;5087802;28;20007;-84
2023/06/16 09:45:17;;;;;;;;;;;;;;;24.93;45.46;101474.63;5087381;28;20053;-83
2023/06/16 09:47:47;;;;;;;;;;;;;;;24.99;45.63;101475.28;5082451;28;20478;-83
2023/06/16 09:50:13;;;;;;;;;;;;;;;25.06;45.22;101477.53;5086701;28;19955;-84
2023/06/16 09:52:41;;;;;;;;;;;;;;;25.17;45.39;101478.78;5085011;28;20007;-84
2023/06/16 09:55:07;;;;;;;;;;;;;;;25.24;44.96;101477.13;5085422;28;20006;-83
2023/06/16 09:57:32;;;;;;;;;;;;;;;25.33;45.27;101479.84;5084178;28;19928;-84
2023/06/16 09:59:57;;;;;;;;;;;;;;;25.32;45.27;101482.94;5087169;28;19923;-84
2023/06/16 10:02:23;;;;;;;;;;;;;;;25.34;44.90;101481.47;5086896;28;19920;-84
2023/06/16 10:04:51;;;;;;;;;;;;;;;25.41;44.73;101475.44;5083510;28;20396;-83
2023/06/16 10:07:17;;;;;;;;;;;;;;;25.44;44.96;101470.09;5084780;28;19943;-83
2023/06/16 10:09:44;;;;;;;;;;;;;;;25.36;45.35;101473.69;5086857;28;21645;-83
2023/06/16 10:12:12;;;;;;;;;;;;;;;25.36;45.46;101470.16;5070016;28;19950;-84
2023/06/16 10:14:40;;;;;;;;;;;;;;;25.35;45.31;101468.56;5089133;28;20015;-84
2023/06/16 10:17:07;;;;;;;;;;;;;;;25.37;45.29;101464.34;5086263;28;19923;-83
2023/06/16 10:19:33;;;;;;;;;;;;;;;25.39;45.19;101459.31;5085514;28;19959;-83
2023/06/16 10:21:59;;;;;;;;;;;;;;;25.47;45.33;101457.66;5082645;28;19959;-84
2023/06/16 10:24:24;;;;;;;;;;;;;;;25.55;45.34;101467.78;5086340;28;20415;-84
2023/06/16 10:26:50;;;;;;;;;;;;;;;25.66;45.24;101463.50;5085739;28;20008;-84
2023/06/16 10:29:20;;;;;;;;;;;;;;;25.74;44.89;101461.91;5086938;28;20257;-83
2023/06/16 10:31:49;;;;;;;;;;;;;;;25.79;44.70;101456.19;5087379;28;20337;-84
2023/06/16 10:34:21;;;;;;;;;;;;;;;25.84;44.66;101459.53;5087602;28;19916;-84
2023/06/16 10:36:48;;;;;;;;;;;;;;;25.84;44.68;101461.47;5082182;28;19916;-83
2023/06/16 10:39:16;;;;;;;;;;;;;;;25.77;44.65;101464.75;5071315;28;19916;-83
2023/06/16 10:41:48;;;;;;;;;;;;;;;25.82;44.85;101455.53;5082675;28;19916;-85
2023/06/16 10:44:27;;;;;;;;;;;;;;;25.85;44.56;101457.59;5082536;28;19947;-84
2023/06/16 10:47:08;;;;;;;;;;;;;;;25.87;44.53;101460.84;5082823;28;19956;-83
2023/06/16 10:49:46;;;;;;;;;;;;;;;25.89;44.62;101467.59;5085615;28;19916;-84
2023/06/16 10:52:30;;;;;;;;;;;;;;;25.96;44.73;101469.00;5083766;28;20045;-83
2023/06/16 10:54:56;;;;;;;;;;;;;;;26.08;44.47;101464.38;5082189;28;19951;-83
2023/06/16 10:57:23;;;;;;;;;;;;;;;26.23;44.27;101467.66;5084908;28;20007;-84
2023/06/16 10:59:57;;;;;;;;;;;;;;;26.26;43.78;101461.50;5081946;28;19916;-83
2023/06/16 11:02:23;;;;;;;;;;;;;;;26.21;44.34;101462.47;5085034;28;19924;-83
2023/06/16 11:05:22;;;;;;;;;;;;;;;26.22;44.52;101461.38;5082320;28;19916;-83
2023/06/16 11:07:50;;;;;;;;;;;;;;;26.31;43.94;101464.03;5075116;28;20414;-83
2023/06/16 11:10:17;;;;;;;;;;;;;;;26.27;43.91;101463.91;5085691;28;19916;-83
2023/06/16 11:12:42;;;;;;;;;;;;;;;26.29;43.41;101463.56;5085172;28;19939;-83
2023/06/16 11:15:09;;;;;;;;;;;;;;;26.20;43.66;101463.63;5085675;28;20303;-83
2023/06/16 11:17:34;;;;;;;;;;;;;;;26.17;43.66;101467.03;5082863;28;19916;-83
2023/06/16 11:20:02;;;;;;;;;;;;;;;26.10;44.08;101459.34;5083776;28;19935;-83
2023/06/16 11:22:29;;;;;;;;;;;;;;;26.11;43.92;101449.16;5085851;28;19928;-83
2023/06/16 11:24:55;;;;;;;;;;;;;;;26.15;43.80;101455.59;5085088;28;19916;-82
2023/06/16 11:27:20;;;;;;;;;;;;;;;26.23;43.63;101454.72;5087727;28;19940;-82
2023/06/16 11:29:47;;;;;;;;;;;;;;;26.29;43.16;101452.56;5089399;28;20426;-83
2023/06/16 11:32:12;;;;;;;;;;;;;;;26.30;43.19;101451.44;5085908;28;19920;-83
2023/06/16 11:34:38;;;;;;;;;;;;;;;26.28;43.22;101454.50;5084283;28;19927;-83
2023/06/16 11:37:04;;;;;;;;;;;;;;;26.32;43.49;101454.63;5084944;28;19915;-83
2023/06/16 11:39:29;;;;;;;;;;;;;;;26.25;43.03;101457.13;5081491;28;20494;-83
2023/06/16 11:41:56;;;;;;;;;;;;;;;26.29;43.32;101450.63;5085524;28;19969;-82
2023/06/16 11:44:21;;;;;;;;;;;;;;;26.23;43.03;101446.50;5085430;28;19949;-82
2023/06/16 11:46:46;;;;;;;;;;;;;;;26.30;43.65;101451.44;5084613;28;19923;-82
2023/06/16 11:49:12;;;;;;;;;;;;;;;26.45;43.37;101446.13;5082765;28;19920;-82
2023/06/16 11:51:37;;;;;;;;;;;;;;;26.56;43.64;101449.25;5089330;28;20218;-82
2023/06/16 11:54:03;;;;;;;;;;;;;;;26.74;42.88;101450.66;5083100;28;19920;-82
2023/06/16 11:56:30;;;;;;;;;;;;;;;26.88;42.94;101452.31;5081098;28;19922;-82
2023/06/16 11:59:01;;;;;;;;;;;;;;;26.97;42.89;101453.00;5085161;28;19916;-82
2023/06/16 12:01:26;;;;;;;;;;;;;;;27.10;42.52;101446.38;5083084;28;19921;-82
2023/06/16 12:03:52;;;;;;;;;;;;;;;27.14;42.53;101447.34;5082172;28;20441;-82
2023/06/16 12:06:18;;;;;;;;;;;;;;;27.04;42.20;101447.78;5087201;28;19923;-82
2023/06/16 12:08:44;;;;;;;;;;;;;;;27.00;42.28;101452.34;5080866;28;20014;-82
2023/06/16 12:11:11;;;;;;;;;;;;;;;26.90;42.49;101453.56;5086582;28;19955;-82
2023/06/16 12:13:37;;;;;;;;;;;;;;;26.75;42.81;101455.03;5085576;28;20418;-82
2023/06/16 12:16:02;;;;;;;;;;;;;;;26.69;43.06;101450.09;5081693;28;19959;-82
2023/06/16 12:18:28;;;;;;;;;;;;;;;26.67;43.01;101450.44;5066765;28;20383;-83
2023/06/16 12:20:53;;;;;;;;;;;;;;;26.70;43.26;101451.69;5083143;28;19970;-82
2023/06/16 12:23:19;;;;;;;;;;;;;;;26.72;43.17;101452.16;5081098;28;19981;-82
2023/06/16 12:25:47;;;;;;;;;;;;;;;26.74;43.30;101458.91;5081353;28;19924;-83
2023/06/16 12:28:16;;;;;;;;;;;;;;;26.63;43.42;101463.25;5080409;28;20016;-82
2023/06/16 12:30:41;;;;;;;;;;;;;;;26.41;43.74;101463.66;5083536;28;19924;-82
2023/06/16 12:33:08;;;;;;;;;;;;;;;26.38;43.95;101458.81;5085908;28;19922;-83